Time;durP1;ratioP1;P1;durP2;ratioP2;P2;SDS_P1;SDS_P2;PMS_P1;PMS_P2;Temp;Humidity;BMP_temperature;BMP_pressure;BME280_temperature;BME280_humidity;BME280_pressure;Samples;Min_cycle;Max_cycle;Signal;HPM_P1;HPM_P2
2022/04/25 00:01:46;;;;;;;2.05;1.10;;;15.40;48.90;;;;;;5112761;28;20044;-68
2022/04/25 00:04:12;;;;;;;2.58;0.90;;;15.40;48.90;;;;;;5113280;28;20118;-68
2022/04/25 00:06:37;;;;;;;1.63;1.27;;;15.40;48.90;;;;;;5114230;28;20036;-65
2022/04/25 00:09:03;;;;;;;2.95;0.90;;;15.40;48.90;;;;;;5114442;28;20071;-68
2022/04/25 00:11:28;;;;;;;2.58;1.15;;;15.40;48.90;;;;;;5112925;28;20071;-68
2022/04/25 00:13:55;;;;;;;1.48;0.90;;;15.40;48.90;;;;;;5112817;28;20058;-69
2022/04/25 00:16:21;;;;;;;2.67;1.42;;;15.40;49.00;;;;;;5114130;28;20039;-70
2022/04/25 00:18:48;;;;;;;1.95;1.00;;;15.40;49.00;;;;;;5112959;28;20433;-63
2022/04/25 00:21:14;;;;;;;1.45;1.00;;;15.40;49.00;;;;;;5112915;28;20050;-65
2022/04/25 00:23:40;;;;;;;2.00;1.20;;;15.40;49.00;;;;;;5112916;28;20039;-70
2022/04/25 00:26:06;;;;;;;2.22;0.90;;;15.40;49.70;;;;;;5111639;28;20428;-63
2022/04/25 00:28:32;;;;;;;1.70;1.35;;;15.30;49.00;;;;;;5112552;28;20143;-67
2022/04/25 00:30:57;;;;;;;1.40;1.10;;;15.40;49.00;;;;;;5112588;28;20027;-68
2022/04/25 00:33:23;;;;;;;2.05;1.33;;;15.40;49.00;;;;;;5112678;28;20047;-68
2022/04/25 00:35:48;;;;;;;1.80;0.77;;;15.40;49.00;;;;;;5112450;28;20395;-67
2022/04/25 00:38:14;;;;;;;1.63;1.10;;;15.40;49.10;;;;;;5112621;28;20040;-68
2022/04/25 00:40:40;;;;;;;2.17;1.25;;;15.40;49.10;;;;;;5113628;28;20031;-67
2022/04/25 00:43:07;;;;;;;2.92;1.13;;;15.40;49.10;;;;;;5112178;28;20391;-68
2022/04/25 00:45:34;;;;;;;1.27;0.75;;;15.30;49.10;;;;;;5113686;28;20475;-65
2022/04/25 00:48:00;;;;;;;1.83;1.00;;;15.40;49.10;;;;;;5112337;28;20054;-68
2022/04/25 00:50:25;;;;;;;1.15;0.63;;;15.30;49.10;;;;;;5114256;28;20040;-70
2022/04/25 00:52:51;;;;;;;1.83;0.73;;;15.40;49.10;;;;;;5112990;28;20126;-68
2022/04/25 00:55:16;;;;;;;1.30;0.80;;;15.40;49.10;;;;;;5112114;28;20475;-63
2022/04/25 00:57:43;;;;;;;1.65;1.10;;;15.40;49.80;;;;;;5112032;28;20040;-68
2022/04/25 01:00:12;;;;;;;1.52;1.08;;;15.30;49.10;;;;;;5111893;28;20490;-68
2022/04/25 01:02:39;;;;;;;1.17;0.88;;;15.30;49.20;;;;;;5111619;28;20051;-68
2022/04/25 01:05:06;;;;;;;2.53;1.05;;;15.30;49.20;;;;;;5112087;28;20088;-68
2022/04/25 01:07:34;;;;;;;1.23;0.80;;;15.30;49.20;;;;;;5111937;28;20036;-68
2022/04/25 01:10:00;;;;;;;1.73;1.00;;;15.30;49.20;;;;;;5111504;28;20391;-68
2022/04/25 01:12:27;;;;;;;2.05;1.00;;;15.30;49.20;;;;;;5112016;28;20040;-69
2022/04/25 01:14:58;;;;;;;1.83;0.80;;;15.30;49.20;;;;;;5111730;28;20039;-68
2022/04/25 01:17:24;;;;;;;3.17;1.15;;;15.30;49.20;;;;;;5111913;28;20064;-67
2022/04/25 01:19:49;;;;;;;1.45;0.93;;;15.30;49.20;;;;;;5111607;28;20587;-70
2022/04/25 01:22:19;;;;;;;3.55;1.33;;;15.30;49.30;;;;;;5111477;28;20043;-70
2022/04/25 01:27:30;;;;;;;1.67;0.70;;;15.30;49.30;;;;;;5111585;28;20048;-70
2022/04/25 01:29:56;;;;;;;2.15;0.90;;;15.30;49.30;;;;;;5111645;28;20096;-69
2022/04/25 01:32:23;;;;;;;1.15;0.50;;;15.30;49.30;;;;;;5111360;28;20420;-69
2022/04/25 01:34:49;;;;;;;1.33;0.75;;;15.30;49.30;;;;;;5112573;28;20035;-69
2022/04/25 01:37:20;;;;;;;1.30;1.20;;;15.30;49.30;;;;;;5111517;28;20062;-68
2022/04/25 01:39:48;;;;;;;1.70;0.95;;;15.30;49.40;;;;;;5111297;28;20510;-69
2022/04/25 01:42:15;;;;;;;1.92;1.10;;;15.30;49.40;;;;;;5111260;28;20055;-70
2022/04/25 01:44:41;;;;;;;1.38;0.73;;;15.30;49.40;;;;;;5112513;28;20368;-69
2022/04/25 01:47:07;;;;;;;2.83;1.50;;;15.30;49.40;;;;;;5112568;28;20032;-69
2022/04/25 01:49:34;;;;;;;2.17;1.13;;;15.30;49.40;;;;;;5111230;28;20035;-69
2022/04/25 01:52:05;;;;;;;2.10;1.35;;;15.30;49.40;;;;;;5111654;28;20047;-69
2022/04/25 01:54:32;;;;;;;1.13;0.70;;;15.20;49.40;;;;;;5113132;28;20123;-69
2022/04/25 01:57:00;;;;;;;2.50;1.40;;;15.20;49.50;;;;;;5111050;28;20051;-69
2022/04/25 01:59:26;;;;;;;1.80;1.17;;;15.20;49.50;;;;;;5111452;28;20042;-69
2022/04/25 02:01:53;;;;;;;2.28;1.63;;;15.20;49.60;;;;;;5111940;28;20402;-69
2022/04/25 02:04:19;;;;;;;1.85;1.10;;;15.20;49.70;;;;;;5112310;28;20048;-68
2022/04/25 02:06:45;;;;;;;2.30;1.60;;;15.20;49.70;;;;;;5110858;28;20106;-68
2022/04/25 02:09:14;;;;;;;2.83;1.45;;;15.10;49.70;;;;;;5111207;28;20063;-69
2022/04/25 02:11:40;;;;;;;2.60;1.33;;;15.20;49.90;;;;;;5112147;28;20036;-69
2022/04/25 02:14:06;;;;;;;2.47;1.67;;;15.20;49.90;;;;;;5111237;28;20100;-69
2022/04/25 02:16:32;;;;;;;1.88;1.40;;;15.20;50.00;;;;;;5110896;28;20398;-69
2022/04/25 02:18:57;;;;;;;2.10;1.48;;;15.20;50.00;;;;;;5112253;28;20031;-69
2022/04/25 02:21:24;;;;;;;1.92;1.63;;;15.20;50.10;;;;;;5110049;28;20235;-64
2022/04/25 02:23:50;;;;;;;2.17;1.50;;;15.20;50.10;;;;;;5110687;28;20047;-69
2022/04/25 02:26:16;;;;;;;2.20;1.73;;;15.20;50.20;;;;;;5112052;28;20118;-68
2022/04/25 02:28:41;;;;;;;2.25;1.52;;;15.20;50.20;;;;;;5110920;28;20044;-68
2022/04/25 02:31:08;;;;;;;2.47;1.83;;;15.10;50.20;;;;;;5110867;28;20044;-69
2022/04/25 02:33:35;;;;;;;2.38;1.85;;;15.10;50.30;;;;;;5110897;28;20062;-65
2022/04/25 02:36:04;;;;;;;1.65;1.55;;;15.10;50.30;;;;;;5110672;28;20479;-68
2022/04/25 02:38:31;;;;;;;2.22;1.42;;;15.10;50.40;;;;;;5111970;28;20040;-68
2022/04/25 02:41:05;;;;;;;3.40;1.85;;;15.10;50.50;;;;;;5111947;28;20118;-68
2022/04/25 02:46:14;;;;;;;3.13;1.40;;;15.10;50.50;;;;;;5129144;27;20598;-68
2022/04/25 02:48:42;;;;;;;2.65;1.85;;;15.10;50.60;;;;;;5116101;28;20044;-69
2022/04/25 02:51:09;;;;;;;2.70;2.05;;;15.10;50.70;;;;;;5108294;28;20043;-67
2022/04/25 02:53:35;;;;;;;3.53;2.40;;;15.10;50.60;;;;;;5108865;28;20180;-66
2022/04/25 02:56:02;;;;;;;2.33;1.75;;;15.10;50.70;;;;;;5108352;28;20123;-68
2022/04/25 02:58:30;;;;;;;4.70;2.40;;;15.10;50.70;;;;;;5110160;28;20035;-68
2022/04/25 03:00:57;;;;;;;3.15;2.00;;;15.00;50.60;;;;;;5108492;28;20122;-68
2022/04/25 03:03:24;;;;;;;2.20;1.90;;;15.10;50.70;;;;;;5108352;28;20055;-68
2022/04/25 03:05:51;;;;;;;3.05;1.85;;;15.00;50.70;;;;;;5108130;28;20075;-63
2022/04/25 03:08:19;;;;;;;3.40;2.47;;;15.00;50.70;;;;;;5108300;28;20081;-68
2022/04/25 03:10:46;;;;;;;3.50;1.90;;;15.00;50.70;;;;;;5091670;28;20043;-65
2022/04/25 03:13:15;;;;;;;2.80;1.98;;;15.00;50.80;;;;;;5108265;28;20044;-68
2022/04/25 03:15:42;;;;;;;4.35;2.88;;;15.00;50.80;;;;;;5108053;28;20441;-68
2022/04/25 03:18:11;;;;;;;3.95;2.38;;;15.00;50.80;;;;;;5107763;28;20048;-68
2022/04/25 03:20:37;;;;;;;4.18;1.73;;;15.00;50.80;;;;;;5108139;28;20093;-63
2022/04/25 03:23:05;;;;;;;2.35;1.88;;;15.00;50.80;;;;;;5107753;28;20055;-64
2022/04/25 03:25:31;;;;;;;2.63;1.90;;;15.00;50.80;;;;;;5107842;28;20044;-67
2022/04/25 03:27:58;;;;;;;2.70;2.20;;;15.00;50.80;;;;;;5108005;28;20040;-67
2022/04/25 03:30:24;;;;;;;3.00;2.15;;;15.00;50.80;;;;;;5108006;28;20047;-68
2022/04/25 03:32:50;;;;;;;3.38;1.98;;;15.00;50.80;;;;;;5108795;28;20039;-68
2022/04/25 03:35:17;;;;;;;4.13;2.63;;;15.00;50.80;;;;;;5107836;28;20166;-62
2022/04/25 03:37:47;;;;;;;3.70;2.42;;;15.00;50.90;;;;;;5107558;28;20115;-68
2022/04/25 03:40:13;;;;;;;3.28;2.20;;;15.00;50.90;;;;;;5107489;28;20040;-68
2022/04/25 03:42:40;;;;;;;3.05;2.50;;;14.90;50.90;;;;;;5107807;28;20043;-68
2022/04/25 03:45:09;;;;;;;2.60;1.90;;;14.90;51.60;;;;;;5108496;28;20429;-68
2022/04/25 03:47:36;;;;;;;4.05;2.65;;;14.90;50.90;;;;;;5107582;28;20066;-68
2022/04/25 03:50:03;;;;;;;3.60;2.15;;;14.90;50.90;;;;;;5107367;28;20039;-62
2022/04/25 03:52:29;;;;;;;3.10;2.22;;;14.90;50.90;;;;;;5107367;28;20040;-68
2022/04/25 03:57:40;;;;;;;2.53;1.90;;;14.90;50.90;;;;;;5094223;28;20048;-62
2022/04/25 04:00:07;;;;;;;3.20;1.40;;;14.90;50.90;;;;;;5092768;28;20067;-67
2022/04/25 04:02:33;;;;;;;4.15;2.30;;;14.90;51.00;;;;;;5093690;28;20036;-68
2022/04/25 04:05:00;;;;;;;4.32;2.67;;;14.90;51.00;;;;;;5094867;28;20042;-63
2022/04/25 04:07:26;;;;;;;2.97;1.95;;;14.90;51.70;;;;;;5093717;28;20539;-68
2022/04/25 04:09:52;;;;;;;3.72;1.95;;;14.90;51.00;;;;;;5093525;28;20115;-69
2022/04/25 04:12:19;;;;;;;3.08;1.67;;;14.80;50.90;;;;;;5093356;28;20536;-68
2022/04/25 04:14:46;;;;;;;3.40;2.40;;;14.80;50.90;;;;;;5094445;28;20085;-68
2022/04/25 04:17:12;;;;;;;4.32;2.38;;;14.80;51.00;;;;;;5093538;28;20108;-66
2022/04/25 04:19:38;;;;;;;2.70;2.25;;;14.80;50.90;;;;;;5093248;28;20507;-68
2022/04/25 04:22:05;;;;;;;3.10;2.13;;;14.80;51.00;;;;;;5092986;28;20044;-68
2022/04/25 04:24:32;;;;;;;3.42;1.98;;;14.80;51.00;;;;;;5094416;28;20048;-63
2022/04/25 04:27:01;;;;;;;3.55;2.28;;;14.80;51.00;;;;;;5093236;28;20040;-67
2022/04/25 04:29:29;;;;;;;4.18;2.03;;;14.80;51.00;;;;;;5093196;28;20093;-63
2022/04/25 04:31:57;;;;;;;3.60;1.85;;;14.80;51.00;;;;;;5093140;28;20044;-62
2022/04/25 04:34:23;;;;;;;4.97;2.42;;;14.80;51.00;;;;;;5092841;28;20055;-68
2022/04/25 04:36:50;;;;;;;3.22;2.05;;;14.80;51.00;;;;;;5094121;28;20040;-68
2022/04/25 04:39:17;;;;;;;2.85;1.80;;;14.80;51.10;;;;;;5093046;28;20129;-68
2022/04/25 04:41:42;;;;;;;3.63;2.40;;;14.80;51.00;;;;;;5092759;28;20585;-65
2022/04/25 04:44:08;;;;;;;2.67;1.67;;;14.80;51.00;;;;;;5093449;28;20131;-68
2022/04/25 04:46:34;;;;;;;3.13;1.83;;;14.80;51.00;;;;;;5092895;28;20369;-68
2022/04/25 04:48:59;;;;;;;2.65;1.73;;;14.80;51.00;;;;;;5092668;28;20165;-70
2022/04/25 04:51:25;;;;;;;2.92;1.80;;;14.80;51.00;;;;;;5092575;28;20032;-67
2022/04/25 04:53:50;;;;;;;2.35;2.10;;;14.80;51.00;;;;;;5094015;28;20028;-64
2022/04/25 04:56:16;;;;;;;2.88;1.58;;;14.70;51.00;;;;;;5092409;28;20641;-64
2022/04/25 04:58:42;;;;;;;2.90;1.67;;;14.80;51.00;;;;;;5092693;28;20071;-67
2022/04/25 05:01:08;;;;;;;2.78;2.10;;;14.80;51.00;;;;;;5092542;28;20089;-62
2022/04/25 05:03:35;;;;;;;2.15;1.88;;;14.70;51.00;;;;;;5092640;28;20445;-63
2022/04/25 05:06:00;;;;;;;2.50;1.83;;;14.70;51.00;;;;;;5092361;28;20127;-64
2022/04/25 05:08:26;;;;;;;2.35;1.50;;;14.80;51.00;;;;;;5091325;28;20155;-67
2022/04/25 05:10:54;;;;;;;1.88;1.67;;;14.70;51.00;;;;;;5092475;28;20139;-68
2022/04/25 05:13:20;;;;;;;4.75;2.00;;;14.70;50.90;;;;;;5092367;28;20483;-68
2022/04/25 05:15:47;;;;;;;3.38;2.20;;;14.80;50.90;;;;;;5092361;28;20048;-68
2022/04/25 05:18:12;;;;;;;2.83;2.20;;;14.70;50.90;;;;;;5093268;28;20078;-68
2022/04/25 05:20:38;;;;;;;2.17;1.55;;;14.70;50.90;;;;;;5091801;28;20072;-68
2022/04/25 05:23:04;;;;;;;2.03;1.77;;;14.70;50.90;;;;;;5091805;28;20059;-63
2022/04/25 05:25:30;;;;;;;2.92;1.92;;;14.70;50.90;;;;;;5090821;28;20044;-68
2022/04/25 05:27:56;;;;;;;3.10;2.10;;;14.70;50.90;;;;;;5090338;28;20071;-68
2022/04/25 05:30:24;;;;;;;3.75;1.75;;;14.70;50.90;;;;;;5092117;28;20068;-68
2022/04/25 05:32:55;;;;;;;2.63;1.77;;;14.70;50.90;;;;;;5091157;28;20039;-67
2022/04/25 05:35:24;;;;;;;3.40;1.73;;;14.80;50.90;;;;;;5092593;28;20047;-68
2022/04/25 05:37:50;;;;;;;2.63;1.27;;;14.70;50.80;;;;;;5090350;28;20050;-66
2022/04/25 05:40:17;;;;;;;2.15;1.88;;;14.80;50.80;;;;;;5091602;28;20036;-68
2022/04/25 05:42:44;;;;;;;3.28;2.40;;;14.80;50.80;;;;;;5091754;28;20079;-62
2022/04/25 05:45:10;;;;;;;1.80;1.52;;;14.80;50.80;;;;;;5090884;28;20385;-68
2022/04/25 05:47:37;;;;;;;2.45;1.90;;;14.70;50.70;;;;;;5091729;28;20043;-68
2022/04/25 05:52:50;;;;;;;3.13;1.55;;;14.70;50.70;;;;;;5091472;28;20459;-68
2022/04/25 05:55:16;;;;;;;4.60;2.10;;;14.70;51.50;;;;;;5091431;28;20075;-68
2022/04/25 05:57:42;;;;;;;2.28;1.65;;;14.70;50.80;;;;;;5091210;28;20051;-69
2022/04/25 06:00:09;;;;;;;3.13;2.17;;;14.80;50.80;;;;;;5091484;28;20040;-68
2022/04/25 06:02:37;;;;;;;3.33;2.20;;;14.70;50.70;;;;;;5091557;28;20090;-68
2022/04/25 06:05:04;;;;;;;2.83;1.88;;;14.70;50.80;;;;;;5092475;28;20040;-67
2022/04/25 06:07:31;;;;;;;2.70;1.95;;;14.70;50.70;;;;;;5091244;28;20028;-62
2022/04/25 06:09:57;;;;;;;3.28;2.15;;;14.70;50.70;;;;;;5092375;28;20043;-68
2022/04/25 06:12:22;;;;;;;2.15;1.67;;;14.80;50.70;;;;;;5091050;28;20032;-68
2022/04/25 06:14:48;;;;;;;4.35;2.38;;;14.80;50.70;;;;;;5091057;28;20086;-66
2022/04/25 06:17:15;;;;;;;3.35;2.10;;;14.80;50.70;;;;;;5091316;28;20051;-69
2022/04/25 06:19:41;;;;;;;5.20;2.03;;;14.80;50.70;;;;;;5090712;28;20488;-67
2022/04/25 06:22:10;;;;;;;4.45;2.50;;;14.80;50.70;;;;;;5090998;28;20607;-68
2022/04/25 06:24:36;;;;;;;3.40;1.42;;;14.80;50.70;;;;;;5092188;28;20089;-67
2022/04/25 06:27:03;;;;;;;2.80;1.73;;;14.80;50.70;;;;;;5092140;28;20036;-65
2022/04/25 06:29:29;;;;;;;1.88;1.48;;;14.80;50.70;;;;;;5090873;28;20040;-68
2022/04/25 06:31:55;;;;;;;1.88;1.50;;;14.80;50.70;;;;;;5092222;28;20036;-67
2022/04/25 06:34:22;;;;;;;3.30;2.00;;;14.80;50.70;;;;;;5090740;28;20048;-64
2022/04/25 06:36:50;;;;;;;4.32;2.20;;;14.80;50.70;;;;;;5091109;28;20067;-67
2022/04/25 06:39:16;;;;;;;4.68;2.58;;;14.80;50.70;;;;;;5092084;28;20044;-66
2022/04/25 06:41:42;;;;;;;3.28;2.22;;;14.70;50.70;;;;;;5090673;28;20039;-68
2022/04/25 06:44:07;;;;;;;3.25;2.00;;;14.80;50.70;;;;;;5090619;28;20032;-68
2022/04/25 06:46:33;;;;;;;3.50;1.98;;;14.80;50.70;;;;;;5090440;28;20140;-68
2022/04/25 06:49:30;;;;;;;2.10;1.70;;;14.80;50.70;;;;;;5091958;28;20125;-63
2022/04/25 06:51:44;;;;;;;3.15;2.17;;;14.80;50.70;;;;;;5090451;28;20136;-70
2022/04/25 06:54:10;;;;;;;3.78;2.30;;;14.80;50.70;;;;;;5090668;28;20090;-64
2022/04/25 06:56:35;;;;;;;3.60;2.08;;;14.80;50.70;;;;;;5090775;28;20071;-67
2022/04/25 06:59:01;;;;;;;3.03;1.80;;;14.80;50.70;;;;;;5090594;28;20048;-67
2022/04/25 07:01:26;;;;;;;4.28;2.28;;;14.80;50.70;;;;;;5090465;28;20042;-64
2022/04/25 07:03:52;;;;;;;4.28;2.28;;;14.70;50.70;;;;;;5073645;28;20051;-67
2022/04/25 07:06:18;;;;;;;3.55;2.20;;;14.80;50.70;;;;;;5090430;28;20074;-68
2022/04/25 07:08:43;;;;;;;4.75;3.10;;;14.80;50.70;;;;;;5091890;28;20232;-68
2022/04/25 07:11:09;;;;;;;2.63;2.25;;;14.80;50.80;;;;;;5090348;28;20040;-67
2022/04/25 07:13:35;;;;;;;4.07;3.10;;;14.80;50.80;;;;;;5091702;28;20032;-68
2022/04/25 07:16:00;;;;;;;5.68;3.17;;;14.80;50.80;;;;;;5091872;28;20046;-67
2022/04/25 07:18:26;;;;;;;4.32;3.75;;;14.80;50.80;;;;;;5091726;28;20062;-67
2022/04/25 07:20:52;;;;;;;4.35;3.95;;;14.80;50.80;;;;;;5090553;28;20082;-68
2022/04/25 07:28:53;;;;;;;5.70;3.95;;;14.70;50.90;;;;;;5090426;28;20051;-67
2022/04/25 07:31:20;;;;;;;4.43;3.25;;;14.70;50.90;;;;;;5091884;28;20079;-66
2022/04/25 07:33:46;;;;;;;5.00;3.67;;;14.70;50.80;;;;;;5094374;28;20077;-68
2022/04/25 07:36:14;;;;;;;4.90;3.78;;;14.70;50.90;;;;;;5095272;28;20386;-68
2022/04/25 07:38:40;;;;;;;5.07;3.65;;;14.70;50.90;;;;;;5094341;28;20127;-68
2022/04/25 07:41:07;;;;;;;4.75;3.97;;;14.70;50.90;;;;;;5094235;28;20443;-68
2022/04/25 07:43:34;;;;;;;4.45;3.75;;;14.70;50.90;;;;;;5095216;28;20399;-67
2022/04/25 07:46:00;;;;;;;5.80;3.65;;;14.70;50.90;;;;;;5093496;28;20694;-63
2022/04/25 07:48:26;;;;;;;7.32;3.95;;;14.70;50.90;;;;;;5094074;28;20399;-63
2022/04/25 07:50:52;;;;;;;5.93;3.72;;;14.70;50.90;;;;;;5094323;28;20036;-68
2022/04/25 07:53:18;;;;;;;3.53;2.95;;;14.70;50.90;;;;;;5094808;28;20076;-68
2022/04/25 07:55:44;;;;;;;4.90;3.42;;;14.70;50.90;;;;;;5093734;28;20550;-68
2022/04/25 07:58:09;;;;;;;6.50;3.58;;;14.70;50.90;;;;;;5093677;28;20044;-67
2022/04/25 08:00:35;;;;;;;5.55;3.70;;;14.70;50.90;;;;;;5093631;28;20055;-67
2022/04/25 08:03:02;;;;;;;5.68;3.90;;;14.70;50.90;;;;;;5094897;28;20404;-63
2022/04/25 08:05:28;;;;;;;5.50;4.63;;;14.70;51.00;;;;;;5093590;28;20437;-67
2022/04/25 08:07:53;;;;;;;4.57;4.03;;;14.70;51.00;;;;;;5093562;28;20039;-68
2022/04/25 08:10:19;;;;;;;5.40;3.08;;;14.70;51.00;;;;;;5093652;28;20039;-68
2022/04/25 08:18:16;;;;;;;5.00;4.10;;;14.60;51.00;;;;;;5094307;28;20048;-68
2022/04/25 08:20:42;;;;;;;4.65;3.15;;;14.60;51.00;;;;;;5093563;28;20097;-64
2022/04/25 08:23:11;;;;;;;5.32;2.90;;;14.60;51.10;;;;;;5106586;28;20040;-69
2022/04/25 08:25:38;;;;;;;2.80;2.25;;;14.70;51.70;;;;;;5113588;28;20127;-70
2022/04/25 08:28:05;;;;;;;4.90;3.00;;;14.70;52.00;;;;;;5113671;28;20237;-70
2022/04/25 08:30:31;;;;;;;5.15;3.00;;;14.70;52.00;;;;;;5114858;28;20440;-68
2022/04/25 08:32:57;;;;;;;3.78;2.33;;;14.80;52.00;;;;;;5114657;28;20045;-70
2022/04/25 08:35:24;;;;;;;2.85;2.05;;;14.80;52.00;;;;;;5113282;28;20470;-70
2022/04/25 08:37:49;;;;;;;2.97;2.38;;;15.00;52.10;;;;;;5095940;28;20035;-70
2022/04/25 08:40:16;;;;;;;4.75;2.75;;;15.10;52.00;;;;;;5113169;28;20047;-63
2022/04/25 08:42:43;;;;;;;3.67;2.28;;;15.30;51.60;;;;;;5113121;28;20039;-64
2022/04/25 08:45:09;;;;;;;2.47;1.83;;;15.50;51.30;;;;;;5112708;28;20044;-66
2022/04/25 08:47:58;;;;;;;3.28;2.08;;;15.80;50.90;;;;;;5114001;28;20420;-72
2022/04/25 08:50:24;;;;;;;4.30;1.98;;;16.10;50.60;;;;;;5111988;28;20046;-70
2022/04/25 08:52:51;;;;;;;2.17;1.77;;;16.40;49.80;;;;;;5112420;28;20051;-63
2022/04/25 08:55:17;;;;;;;2.25;1.80;;;16.70;49.90;;;;;;5111092;28;20410;-63
2022/04/25 08:57:44;;;;;;;2.58;1.63;;;17.00;48.60;;;;;;5113092;28;20040;-70
2022/04/25 09:00:10;;;;;;;2.72;1.45;;;17.20;48.00;;;;;;5113695;28;20043;-70
2022/04/25 09:02:38;;;;;;;3.38;2.03;;;17.50;47.40;;;;;;5112704;28;20161;-70
2022/04/25 09:05:05;;;;;;;2.35;2.10;;;17.80;47.00;;;;;;5113377;28;20108;-70
2022/04/25 09:07:37;;;;;;;2.83;1.83;;;18.00;46.40;;;;;;5113690;28;20406;-69
2022/04/25 09:10:08;;;;;;;3.10;1.38;;;18.20;45.90;;;;;;5112662;28;20040;-70
2022/04/25 09:12:35;;;;;;;2.63;1.67;;;18.50;45.50;;;;;;5111689;28;20424;-70
2022/04/25 09:15:01;;;;;;;2.58;1.92;;;18.70;45.10;;;;;;5111706;28;20491;-71
2022/04/25 09:17:26;;;;;;;4.47;1.70;;;18.80;44.70;;;;;;5113493;28;20084;-71
2022/04/25 09:19:52;;;;;;;3.60;2.15;;;19.00;44.40;;;;;;5111983;28;20035;-64
2022/04/25 09:22:36;;;;;;;3.20;1.65;;;19.10;44.00;;;;;;5112539;28;20043;-67
2022/04/25 09:25:12;;;;;;;3.72;2.20;;;19.20;43.70;;;;;;5111128;28;20046;-70
2022/04/25 09:27:39;;;;;;;3.15;2.00;;;19.40;43.50;;;;;;5112426;28;20046;-70
2022/04/25 09:32:53;;;;;;;2.67;2.00;;;19.60;43.00;;;;;;5187232;27;219371;-71
2022/04/25 09:38:05;;;;;;;3.60;2.40;;;19.70;42.90;;;;;;5181457;27;101948;-73
2022/04/25 09:40:33;;;;;;;3.78;2.03;;;19.90;42.00;;;;;;5173890;27;20125;-71
2022/04/25 09:45:44;;;;;;;2.35;1.90;;;20.10;42.10;;;;;;5125926;27;20503;-71
2022/04/25 09:48:24;;;;;;;3.63;1.50;;;20.20;41.90;;;;;;5128988;28;20506;-63
2022/04/25 09:51:07;;;;;;;3.00;1.95;;;20.20;41.70;;;;;;5128832;28;20043;-72
2022/04/25 09:53:50;;;;;;;3.53;1.50;;;20.30;41.60;;;;;;5128932;28;20043;-72
2022/04/25 10:01:40;;;;;;;3.78;1.98;;;20.50;41.30;;;;;;5088292;27;20143;-72
2022/04/25 10:04:31;;;;;;;5.90;2.33;;;20.50;41.10;;;;;;5063023;28;20041;-71
2022/04/25 10:07:00;;;;;;;4.28;1.55;;;20.60;41.00;;;;;;5047196;28;20061;-71
2022/04/25 10:09:30;;;;;;;2.13;1.23;;;20.70;40.90;;;;;;5079823;28;20473;-67
2022/04/25 10:11:58;;;;;;;2.95;1.30;;;20.70;40.80;;;;;;5045591;28;20037;-69
2022/04/25 10:14:26;;;;;;;2.78;1.60;;;20.70;40.70;;;;;;5045489;28;20056;-65
2022/04/25 10:16:54;;;;;;;2.85;1.50;;;20.80;40.70;;;;;;5046293;28;20041;-71
2022/04/25 10:19:21;;;;;;;5.10;1.73;;;20.80;40.60;;;;;;5045971;28;20071;-65
2022/04/25 10:21:48;;;;;;;4.57;1.10;;;20.80;40.50;;;;;;5043944;28;20469;-65
2022/04/25 10:24:15;;;;;;;2.03;1.35;;;20.80;40.50;;;;;;5041922;28;20274;-69
2022/04/25 10:26:41;;;;;;;4.72;1.25;;;20.80;40.50;;;;;;5047350;28;20037;-69
2022/04/25 10:29:10;;;;;;;6.10;1.42;;;20.80;40.50;;;;;;5046292;28;20117;-69
2022/04/25 10:31:41;;;;;;;2.85;1.25;;;20.70;40.50;;;;;;5075056;28;20662;-63
2022/04/25 10:34:07;;;;;;;2.03;1.20;;;20.70;40.60;;;;;;5047882;28;20033;-70
2022/04/25 10:36:43;;;;;;;2.13;1.20;;;20.60;40.60;;;;;;5047588;28;20076;-71
2022/04/25 10:39:15;;;;;;;2.45;1.10;;;20.60;40.50;;;;;;5065979;28;20034;-71
2022/04/25 10:47:16;;;;;;;1.63;1.10;;;20.50;40.60;;;;;;5146244;27;20938;-70
2022/04/25 11:00:48;;;;;;;2.25;1.42;;;20.40;40.70;;;;;;5129237;27;20139;-70
2022/04/25 11:03:27;;;;;;;3.15;1.50;;;19.80;41.50;;;;;;5129142;28;20391;-69
2022/04/25 11:06:13;;;;;;;2.85;1.15;;;19.70;41.50;;;;;;5128991;28;20099;-70
2022/04/25 11:08:48;;;;;;;2.53;0.90;;;19.60;41.70;;;;;;5128459;28;20104;-66
2022/04/25 11:11:18;;;;;;;2.10;1.30;;;19.50;41.80;;;;;;5129200;28;20658;-63
2022/04/25 11:16:28;;;;;;;2.20;1.33;;;19.50;42.00;;;;;;5102332;27;20138;-70
2022/04/25 11:21:53;;;;;;;3.78;1.33;;;19.30;42.10;;;;;;5129134;27;20139;-70
2022/04/25 11:24:39;;;;;;;3.33;1.27;;;19.20;42.30;;;;;;5129196;28;20039;-70
2022/04/25 11:27:11;;;;;;;1.75;1.00;;;19.20;42.30;;;;;;5130202;27;20043;-63
2022/04/25 11:29:45;;;;;;;1.80;1.00;;;19.20;42.50;;;;;;5129031;28;20039;-63
2022/04/25 11:32:35;;;;;;;1.65;0.98;;;19.20;42.50;;;;;;5129081;28;20035;-72
2022/04/25 11:35:03;;;;;;;2.60;1.30;;;19.10;42.50;;;;;;5128983;27;20394;-70
2022/04/25 11:37:31;;;;;;;1.70;0.93;;;19.10;42.60;;;;;;5130115;27;20070;-70
2022/04/25 11:39:59;;;;;;;2.40;1.13;;;19.10;42.80;;;;;;5128689;28;20040;-70
2022/04/25 11:42:27;;;;;;;2.08;1.17;;;19.00;42.80;;;;;;5128687;28;20050;-70
2022/04/25 11:44:55;;;;;;;2.95;1.10;;;19.00;43.00;;;;;;5128708;28;20457;-64
2022/04/25 11:47:21;;;;;;;2.55;0.98;;;18.90;43.00;;;;;;5129913;27;20114;-70
2022/04/25 11:49:47;;;;;;;2.03;1.55;;;18.90;43.20;;;;;;5119516;28;20466;-70
2022/04/25 11:52:15;;;;;;;1.88;1.10;;;18.80;43.40;;;;;;5091079;28;20108;-71
2022/04/25 11:54:42;;;;;;;2.75;1.13;;;18.70;43.40;;;;;;5108109;28;20044;-70
2022/04/25 11:57:07;;;;;;;1.50;1.10;;;18.70;43.50;;;;;;5108380;28;20051;-70
2022/04/25 11:59:33;;;;;;;2.95;1.35;;;18.60;43.70;;;;;;5090838;28;20456;-70
2022/04/25 12:01:58;;;;;;;2.65;1.85;;;18.50;43.80;;;;;;5107993;28;20043;-70
2022/04/25 12:07:07;;;;;;;2.88;1.60;;;18.50;43.90;;;;;;5146286;27;20142;-68
2022/04/25 12:17:48;;;;;;;3.45;1.42;;;18.20;44.60;;;;;;5128753;28;20055;-70
2022/04/25 12:20:16;;;;;;;4.32;1.85;;;18.10;44.70;;;;;;5128965;28;20046;-71
2022/04/25 12:23:01;;;;;;;3.28;1.80;;;18.10;44.80;;;;;;5130131;27;20470;-62
2022/04/25 12:25:33;;;;;;;1.65;1.23;;;18.10;45.10;;;;;;5146071;27;20070;-70
2022/04/25 12:31:04;;;;;;;2.72;1.73;;;18.00;45.20;;;;;;5170520;27;20151;-68
2022/04/25 12:36:20;;;;;;;3.17;1.90;;;18.00;45.30;;;;;;5146281;27;20132;-66
2022/04/25 12:46:53;;;;;;;2.05;1.45;;;17.90;45.50;;;;;;5146329;27;20132;-70
2022/04/25 12:51:59;;;;;;;4.70;1.77;;;17.80;45.70;;;;;;5129395;27;20154;-70
2022/04/25 12:54:30;;;;;;;4.28;1.88;;;17.70;45.90;;;;;;5118241;28;20107;-71
2022/04/25 13:05:08;;;;;;;2.63;1.88;;;17.70;46.00;;;;;;5127997;27;20415;-69
2022/04/25 13:07:37;;;;;;;2.28;1.80;;;17.60;46.20;;;;;;5128884;28;20066;-69
2022/04/25 13:10:08;;;;;;;3.80;1.80;;;17.50;46.20;;;;;;5130216;28;20063;-69
2022/04/25 13:12:36;;;;;;;3.58;2.60;;;17.40;46.40;;;;;;5129481;28;20043;-67
2022/04/25 13:15:04;;;;;;;1.80;1.65;;;17.40;46.60;;;;;;5129568;28;20122;-63
2022/04/25 13:17:30;;;;;;;2.38;1.50;;;17.40;46.60;;;;;;5130077;27;20491;-63
2022/04/25 13:19:55;;;;;;;3.15;2.38;;;17.30;46.60;;;;;;5128793;28;20043;-69
2022/04/25 13:22:21;;;;;;;4.15;2.22;;;17.30;46.80;;;;;;5128986;28;20100;-69
2022/04/25 13:24:48;;;;;;;2.38;1.83;;;17.20;46.80;;;;;;5128561;28;20510;-62
2022/04/25 13:27:15;;;;;;;2.70;2.08;;;17.20;46.90;;;;;;5128616;28;20040;-68
2022/04/25 13:29:41;;;;;;;4.13;2.50;;;17.20;47.00;;;;;;5129981;27;20074;-69
2022/04/25 13:32:07;;;;;;;4.25;2.40;;;17.10;47.10;;;;;;5128517;28;20097;-64
2022/04/25 13:34:33;;;;;;;4.07;2.15;;;17.10;47.20;;;;;;5128549;28;20043;-70
2022/04/25 13:37:02;;;;;;;2.38;1.80;;;17.10;47.20;;;;;;5128660;28;20038;-69
2022/04/25 13:39:29;;;;;;;3.90;2.08;;;17.00;47.30;;;;;;5128678;28;20039;-62
2022/04/25 13:41:55;;;;;;;3.50;1.90;;;17.00;47.30;;;;;;5128538;28;20039;-69
2022/04/25 13:44:23;;;;;;;3.47;2.15;;;17.00;47.30;;;;;;5129563;28;20044;-68
2022/04/25 13:46:48;;;;;;;4.13;2.28;;;17.00;47.40;;;;;;5128324;28;20039;-68
2022/04/25 13:49:14;;;;;;;2.70;2.40;;;17.00;47.50;;;;;;5128187;28;20280;-69
2022/04/25 13:51:43;;;;;;;3.50;2.30;;;17.00;47.60;;;;;;5129872;28;20126;-62
2022/04/25 13:54:09;;;;;;;2.88;2.45;;;16.90;48.40;;;;;;5128025;28;20039;-69
2022/04/25 13:56:34;;;;;;;3.65;2.70;;;16.90;47.70;;;;;;5129284;28;20038;-69
2022/04/25 13:59:06;;;;;;;3.40;2.42;;;16.90;47.80;;;;;;5129206;28;20482;-68
2022/04/25 14:01:31;;;;;;;3.10;2.60;;;17.00;47.80;;;;;;5129459;28;20479;-68
2022/04/25 14:03:57;;;;;;;3.28;2.17;;;16.80;47.80;;;;;;5127527;28;20126;-69
2022/04/25 14:06:23;;;;;;;4.03;2.92;;;16.80;47.90;;;;;;5128190;28;20049;-68
2022/04/25 14:08:48;;;;;;;2.90;2.70;;;16.80;48.00;;;;;;5127837;28;20049;-63
2022/04/25 14:11:14;;;;;;;2.65;2.38;;;16.80;48.10;;;;;;5127079;28;20054;-69
2022/04/25 14:13:40;;;;;;;2.83;2.55;;;16.80;48.10;;;;;;5128079;28;20042;-68
2022/04/25 14:16:07;;;;;;;3.67;2.72;;;16.70;48.10;;;;;;5116559;28;20127;-70
2022/04/25 14:18:33;;;;;;;3.65;2.75;;;16.70;48.20;;;;;;5115400;28;20040;-63
2022/04/25 14:20:59;;;;;;;3.40;2.40;;;16.70;48.20;;;;;;5113815;28;20051;-69
2022/04/25 14:23:25;;;;;;;3.65;2.67;;;16.70;48.30;;;;;;5115073;28;20044;-68